Aviation Digital Data Service (ADDS)

Output produced by METARs form (0725 UTC 16 September 2014)
found at http://www.aviationweather.gov/adds/metars/
 
KMIV 160713Z AUTO 00000KT 10SM BKN029 BKN040 BKN070 14/13 A3005 RMK AO2 T01440133
KMIV 160520Z 1606/1706 VRB02KT P6SM FEW030 BKN200 
     FM161600 34008KT P6SM FEW040 
     FM170000 35002KT P6SM SKC